Time;durP1;ratioP1;P1;durP2;ratioP2;P2;SDS_P1;SDS_P2;PMS_P1;PMS_P2;Temp;Humidity;BMP_temperature;BMP_pressure;BME280_temperature;BME280_humidity;BME280_pressure;Samples;Min_cycle;Max_cycle;Signal;HPM_P1;HPM_P2
2021/05/18 00:03:52;;;;;;;0.10;0.10;;;;;;;8.94;91.14;100851.06;10452060;28;20021;-64
2021/05/18 00:14:26;;;;;;;0.10;0.10;;;;;;;8.85;90.78;100852.78;10437935;28;20328;-64
2021/05/18 00:19:27;;;;;;;0.10;0.10;;;;;;;8.85;90.04;100866.06;10450312;28;20052;-64
2021/05/18 00:24:27;;;;;;;0.10;0.10;;;;;;;8.81;89.95;100875.31;10448664;28;20056;-63
2021/05/18 00:29:27;;;;;;;0.10;0.10;;;;;;;8.78;89.84;100873.78;10448676;28;20075;-64
2021/05/18 00:34:28;;;;;;;0.10;0.10;;;;;;;8.74;89.38;100875.06;10448506;28;20087;-64
2021/05/18 00:39:28;;;;;;;0.10;0.10;;;;;;;8.72;89.17;100881.50;10451830;28;20025;-64
2021/05/18 00:44:30;;;;;;;0.10;0.10;;;;;;;8.68;88.82;100890.75;10448422;28;20488;-64
2021/05/18 00:49:30;;;;;;;0.10;0.10;;;;;;;8.64;88.52;100890.22;10453885;28;20104;-64
2021/05/18 00:54:38;;;;;;;0.10;0.10;;;;;;;8.61;88.68;100895.81;10447784;28;20029;-64
2021/05/18 00:59:39;;;;;;;0.10;0.10;;;;;;;8.58;89.09;100893.41;10488110;28;20017;-64
2021/05/18 01:04:42;;;;;;;0.10;0.10;;;;;;;8.57;88.79;100902.38;10489253;28;20425;-64
2021/05/18 01:09:42;;;;;;;0.10;0.10;;;;;;;8.55;88.51;100912.28;10466016;28;20252;-63
2021/05/18 01:14:43;;;;;;;0.10;0.10;;;;;;;8.52;87.94;100913.44;10456357;28;20025;-64
2021/05/18 01:19:43;;;;;;;0.10;0.10;;;;;;;8.51;87.72;100913.56;10461132;28;20037;-64
2021/05/18 01:24:43;;;;;;;0.10;0.10;;;;;;;8.52;88.81;100923.19;10455811;28;20279;-64
2021/05/18 01:29:43;;;;;;;0.10;0.10;;;;;;;8.50;88.69;100926.00;10455763;28;20551;-64
2021/05/18 01:34:44;;;;;;;0.10;0.10;;;;;;;8.49;88.67;100929.63;10455048;28;20024;-64
2021/05/18 01:44:44;;;;;;;0.10;0.10;;;;;;;8.50;86.68;100941.09;10454565;28;20033;-64
2021/05/18 01:49:45;;;;;;;0.10;0.10;;;;;;;8.50;86.62;100941.94;10457084;28;20031;-64
2021/05/18 01:54:45;;;;;;;0.10;0.10;;;;;;;8.49;85.31;100956.16;10454696;28;20021;-64
2021/05/18 01:59:48;;;;;;;0.10;0.10;;;;;;;8.49;86.12;100953.53;10454101;28;20036;-64
2021/05/18 02:04:54;;;;;;;0.10;0.10;;;;;;;8.49;85.29;100960.66;10452622;28;20036;-64
2021/05/18 02:09:54;;;;;;;0.10;0.10;;;;;;;8.48;86.47;100961.63;10475783;28;20028;-64
2021/05/18 02:15:03;;;;;;;0.10;0.10;;;;;;;8.47;86.26;100975.91;10492502;28;20301;-64
2021/05/18 02:25:22;;;;;;;0.10;0.10;;;;;;;8.44;86.48;100984.16;10461980;28;20029;-64
2021/05/18 02:30:23;;;;;;;0.10;0.10;;;;;;;8.44;85.93;100989.47;10452804;28;20027;-64
2021/05/18 02:35:24;;;;;;;0.10;0.10;;;;;;;8.42;85.95;100992.25;10453059;28;20096;-64
2021/05/18 02:40:28;;;;;;;0.10;0.10;;;;;;;8.43;86.03;100996.56;10455286;28;20031;-64
2021/05/18 02:45:33;;;;;;;0.10;0.10;;;;;;;8.43;86.49;100993.91;10452481;28;20271;-64
2021/05/18 02:50:34;;;;;;;0.10;0.10;;;;;;;8.44;86.39;100997.44;10461448;28;20017;-64
2021/05/18 02:55:47;;;;;;;0.10;0.10;;;;;;;8.38;84.82;100993.47;10450836;28;20028;-64
2021/05/18 03:00:47;;;;;;;0.10;0.10;;;;;;;8.20;85.21;100997.78;10451772;28;20122;-64
2021/05/18 03:05:48;;;;;;;0.10;0.10;;;;;;;7.98;86.04;100993.63;10452494;28;20484;-64
2021/05/18 03:10:48;;;;;;;0.10;0.10;;;;;;;7.77;85.81;100997.22;10468502;28;20024;-64
2021/05/18 03:15:49;;;;;;;0.10;0.10;;;;;;;7.60;86.33;101004.00;10492450;28;20047;-64
2021/05/18 03:20:49;;;;;;;0.10;0.10;;;;;;;7.44;86.74;101004.50;10459991;28;20781;-64
2021/05/18 03:25:50;;;;;;;0.07;0.07;;;;;;;7.30;87.19;101009.31;10451027;28;20025;-64
2021/05/18 03:35:51;;;;;;;0.10;0.10;;;;;;;7.49;88.85;101018.19;10449547;28;20177;-64
2021/05/18 03:40:56;;;;;;;0.03;0.03;;;;;;;8.32;87.30;101002.84;10458413;28;20076;-64
2021/05/18 04:59:25;;;;;;;0.13;0.13;;;;;;;10.49;78.24;101059.34;10469183;28;20061;-64
2021/05/18 05:09:41;;;;;;;0.10;0.10;;;;;;;10.45;80.63;101058.81;10495025;28;20016;-64
2021/05/18 05:14:42;;;;;;;0.10;0.10;;;;;;;10.57;80.78;101062.94;10496063;28;20395;-64
2021/05/18 05:19:43;;;;;;;0.10;0.10;;;;;;;10.52;80.50;101067.88;10468198;28;20021;-63
2021/05/18 05:24:44;;;;;;;0.10;0.10;;;;;;;10.48;81.39;101066.50;10455388;28;20018;-64
2021/05/18 05:29:45;;;;;;;0.10;0.10;;;;;;;10.47;81.65;101078.16;10465024;28;20017;-64
2021/05/18 05:34:45;;;;;;;0.10;0.10;;;;;;;10.43;81.00;101069.63;10454938;28;20035;-62
2021/05/18 05:39:45;;;;;;;0.10;0.10;;;;;;;10.40;80.85;101075.25;10453542;28;20025;-63
2021/05/18 05:44:45;;;;;;;0.10;0.10;;;;;;;10.34;82.07;101086.50;10449607;28;20155;-64
2021/05/18 05:49:46;;;;;;;0.10;0.10;;;;;;;10.33;81.30;101087.50;10457166;28;20033;-64
2021/05/18 05:54:48;;;;;;;0.10;0.10;;;;;;;10.28;82.30;101097.75;10458294;28;20029;-64
2021/05/18 05:59:48;;;;;;;0.10;0.10;;;;;;;10.24;82.87;101099.03;10461000;28;20456;-64
2021/05/18 06:04:49;;;;;;;0.10;0.10;;;;;;;10.33;82.53;101097.31;10455310;28;20115;-64
2021/05/18 06:09:55;;;;;;;0.10;0.10;;;;;;;10.32;83.18;101101.78;10465674;28;20476;-63
2021/05/18 06:51:35;;;;;;;0.10;0.10;;;;;;;10.90;81.79;101151.13;10492889;28;20036;-64
2021/05/18 06:56:37;;;;;;;0.10;0.10;;;;;;;12.40;79.43;101146.34;10473076;28;20476;-64
2021/05/18 07:01:37;;;;;;;0.10;0.10;;;;;;;14.80;72.23;101150.00;10455071;28;20028;-64
2021/05/18 07:11:53;;;;;;;0.10;0.10;;;;;;;17.12;63.43;101143.38;10453173;28;20021;-64
2021/05/18 07:16:53;;;;;;;0.10;0.10;;;;;;;17.31;62.10;101148.09;10452705;28;20274;-64
2021/05/18 07:21:53;;;;;;;0.10;0.10;;;;;;;16.95;62.56;101145.50;10452049;28;20021;-63
2021/05/18 07:26:54;;;;;;;0.10;0.10;;;;;;;16.56;62.87;101151.31;10461695;28;20079;-64
2021/05/18 07:31:54;;;;;;;0.10;0.10;;;;;;;16.95;63.04;101148.19;10492498;28;20023;-64
2021/05/18 07:36:55;;;;;;;0.10;0.10;;;;;;;17.24;62.00;101143.66;10492777;28;20270;-63
2021/05/18 07:41:55;;;;;;;0.10;0.10;;;;;;;17.90;58.78;101151.41;10493170;28;20024;-63
2021/05/18 07:46:55;;;;;;;0.10;0.10;;;;;;;17.35;59.91;101151.22;10492417;28;20025;-64
2021/05/18 08:07:52;;;;;;;0.10;0.10;;;;;;;16.53;59.82;101153.34;10491374;28;20037;-63
2021/05/18 08:12:53;;;;;;;0.10;0.10;;;;;;;16.27;59.62;101156.56;10459618;28;20024;-64
2021/05/18 10:36:14;;;;;;;0.10;0.10;;;;;;;12.32;73.10;101225.59;10394126;28;20419;-63
2021/05/18 10:41:24;;;;;;;0.10;0.10;;;;;;;12.37;74.05;101229.47;10403253;28;20046;-64
2021/05/18 10:46:29;;;;;;;0.10;0.10;;;;;;;12.26;73.27;101236.94;10384379;28;20212;-64
2021/05/18 10:51:31;;;;;;;0.10;0.10;;;;;;;12.06;73.01;101239.00;10409134;28;20019;-64
2021/05/18 10:56:58;;;;;;;0.10;0.10;;;;;;;11.94;73.12;101238.44;10408869;28;20029;-64
2021/05/18 11:02:20;;;;;;;0.10;0.10;;;;;;;11.95;74.24;101248.94;10384828;28;20473;-64
2021/05/18 11:07:32;;;;;;;0.10;0.10;;;;;;;12.27;73.63;101241.28;10351771;28;20029;-64
2021/05/18 11:12:33;;;;;;;0.10;0.10;;;;;;;12.87;71.40;101243.81;10368806;28;20431;-63
2021/05/18 11:17:38;;;;;;;0.00;0.00;;;;;;;13.64;69.41;101239.03;10402183;28;20105;-64
2021/05/18 11:28:37;;;;;;;0.10;0.10;;;;;;;15.38;63.94;101228.19;10384407;28;20014;-63
2021/05/18 11:33:41;;;;;;;0.10;0.10;;;;;;;15.49;54.72;101240.34;10368024;28;20013;-64
2021/05/18 11:39:02;;;;;;;0.10;0.10;;;;;;;16.08;55.32;101229.69;10368620;28;20025;-64
2021/05/18 11:44:03;;;;;;;0.10;0.10;;;;;;;15.99;54.06;101231.63;10367147;28;20528;-64
2021/05/18 11:49:07;;;;;;;0.10;0.10;;;;;;;15.51;55.54;101227.56;10371214;28;20129;-64
2021/05/18 11:54:08;;;;;;;0.10;0.10;;;;;;;15.28;56.61;101232.97;10368716;28;20017;-64
2021/05/18 11:59:09;;;;;;;0.10;0.10;;;;;;;15.30;59.66;101234.47;10406521;28;20025;-64
2021/05/18 12:04:11;;;;;;;0.10;0.10;;;;;;;15.72;59.97;101230.41;10407839;28;20268;-63
2021/05/18 12:09:14;;;;;;;0.10;0.10;;;;;;;16.18;57.46;101235.63;10367143;28;20026;-64
2021/05/18 12:14:14;;;;;;;0.10;0.10;;;;;;;15.97;53.38;101238.22;10366415;28;20021;-64
2021/05/18 12:19:16;;;;;;;0.10;0.10;;;;;;;15.68;56.61;101237.19;10374426;28;20473;-64
2021/05/18 12:24:24;;;;;;;0.10;0.10;;;;;;;15.39;58.71;101236.06;10366802;28;20334;-64
2021/05/18 12:29:50;;;;;;;0.10;0.10;;;;;;;15.64;59.64;101235.81;10366972;28;20092;-64
2021/05/18 12:34:52;;;;;;;0.10;0.10;;;;;;;15.56;59.55;101241.28;10368890;28;20072;-64
2021/05/18 12:39:53;;;;;;;0.10;0.10;;;;;;;15.61;57.77;101244.25;10366348;28;20382;-64
2021/05/18 12:44:54;;;;;;;0.10;0.10;;;;;;;16.10;58.87;101245.63;10365754;28;20025;-64
2021/05/18 12:49:56;;;;;;;0.10;0.10;;;;;;;16.28;58.51;101240.72;10366766;28;20022;-64
2021/05/18 12:54:56;;;;;;;0.10;0.10;;;;;;;16.25;58.51;101241.91;10399704;28;20080;-64
2021/05/18 13:00:10;;;;;;;0.10;0.10;;;;;;;16.24;56.44;101239.44;10391735;28;20022;-64
2021/05/18 13:05:13;;;;;;;;;;;;;;;15.91;61.16;101238.94;10372323;28;20268;-64
2021/05/18 13:10:27;;;;;;;0.10;0.10;;;;;;;15.41;63.43;101254.66;10373175;28;20008;-64
2021/05/18 13:15:27;;;;;;;0.10;0.10;;;;;;;14.90;66.25;101262.41;10374386;28;20056;-64
2021/05/18 13:20:40;;;;;;;0.10;0.10;;;;;;;14.42;67.41;101261.59;10386312;28;20052;-64
2021/05/18 13:30:59;;;;;;;0.10;0.10;;;;;;;13.78;67.37;101251.72;10372754;28;20522;-65
2021/05/18 13:36:00;;;;;;;0.10;0.10;;;;;;;14.03;63.17;101255.19;10373779;28;20021;-65
2021/05/18 13:41:02;;;;;;;0.10;0.10;;;;;;;14.52;62.69;101256.09;10371706;28;20097;-65
2021/05/18 13:46:03;;;;;;;0.10;0.10;;;;;;;15.05;61.48;101249.91;10373249;28;20022;-65
2021/05/18 13:51:05;;;;;;;0.10;0.10;;;;;;;15.37;59.32;101248.00;10371979;28;20029;-65
2021/05/18 13:56:05;;;;;;;0.10;0.10;;;;;;;15.74;59.98;101241.81;10388261;28;20061;-65
2021/05/18 14:01:07;;;;;;;0.10;0.10;;;;;;;15.31;57.49;101246.84;10412237;28;20134;-65
2021/05/18 14:06:10;;;;;;;0.10;0.10;;;;;;;14.84;58.97;101247.84;10390775;28;20025;-65
2021/05/18 14:11:18;;;;;;;0.10;0.10;;;;;;;14.79;59.71;101234.13;10385641;28;20018;-65
2021/05/18 14:16:21;;;;;;;0.10;0.10;;;;;;;14.66;61.27;101237.41;10378617;28;20028;-65
2021/05/18 14:21:23;;;;;;;0.10;0.10;;;;;;;14.64;59.84;101247.47;10369607;28;20014;-65
2021/05/18 14:26:25;;;;;;;0.10;0.10;;;;;;;14.65;62.53;101253.66;10386791;28;20028;-65
2021/05/18 14:31:26;;;;;;;0.10;0.10;;;;;;;15.12;59.42;101242.78;10408349;28;20018;-65
2021/05/18 14:36:26;;;;;;;0.10;0.10;;;;;;;15.31;60.22;101251.41;10410198;28;20021;-65
2021/05/18 14:56:54;;;;;;;0.10;0.10;;;;;;;14.46;61.82;101261.09;10389494;28;20044;-64
2021/05/18 15:01:54;;;;;;;0.10;0.10;;;;;;;14.12;62.76;101249.81;10374230;28;20447;-65
2021/05/18 15:06:56;;;;;;;0.10;0.10;;;;;;;13.96;64.78;101264.94;10405011;28;20029;-65
2021/05/18 15:11:57;;;;;;;0.10;0.10;;;;;;;13.81;67.65;101274.66;10393791;28;20502;-65
2021/05/18 15:16:57;;;;;;;0.10;0.10;;;;;;;13.59;68.60;101269.00;10410572;28;20025;-65
2021/05/18 15:21:59;;;;;;;0.10;0.10;;;;;;;13.45;72.66;101274.19;10409293;28;20028;-65
2021/05/18 15:26:59;;;;;;;0.10;0.10;;;;;;;13.38;72.26;101282.03;10409180;28;20207;-65
2021/05/18 15:32:01;;;;;;;0.10;0.10;;;;;;;13.40;72.88;101277.34;10408420;28;20027;-72
2021/05/18 15:37:01;;;;;;;0.10;0.10;;;;;;;13.53;74.40;101276.88;10408840;28;20017;-64
2021/05/18 15:42:03;;;;;;;0.10;0.10;;;;;;;13.63;74.09;101279.38;10391516;28;20026;-65
2021/05/18 15:47:04;;;;;;;0.10;0.10;;;;;;;13.38;73.99;101279.38;10380519;28;20037;-65
2021/05/18 15:52:04;;;;;;;0.10;0.10;;;;;;;13.10;76.11;101274.28;10388110;28;20029;-65
2021/05/18 15:57:05;;;;;;;0.10;0.10;;;;;;;12.88;76.00;101282.91;10368024;28;20056;-64
2021/05/18 16:02:05;;;;;;;0.10;0.10;;;;;;;12.74;76.46;101283.53;10464936;23;20155;-65
2021/05/18 16:07:07;;;;;;;0.10;0.10;;;;;;;12.66;77.51;101289.72;10451668;28;20111;-65
2021/05/18 16:12:09;;;;;;;0.10;0.10;;;;;;;12.64;77.10;101291.69;10432605;28;20435;-66
2021/05/18 16:17:09;;;;;;;0.10;0.10;;;;;;;12.63;76.86;101288.19;10435563;28;20032;-65
2021/05/18 16:22:10;;;;;;;0.10;0.10;;;;;;;12.64;76.73;101297.03;10433812;28;20032;-66
2021/05/18 16:27:14;;;;;;;0.10;0.10;;;;;;;12.77;75.03;101294.75;10435639;28;20051;-66
2021/05/18 16:32:15;;;;;;;0.10;0.10;;;;;;;12.98;71.12;101297.00;10438832;28;20021;-65
2021/05/18 16:37:15;;;;;;;0.17;0.17;;;;;;;13.25;69.56;101292.34;10448312;28;20414;-66
2021/05/18 16:42:15;;;;;;;0.10;0.10;;;;;;;13.44;68.00;101291.22;10458482;28;20479;-66
2021/05/18 16:47:15;;;;;;;0.10;0.10;;;;;;;13.33;65.85;101295.91;10454411;28;20036;-66
2021/05/18 16:52:16;;;;;;;0.10;0.10;;;;;;;13.08;66.73;101295.00;10447414;28;20031;-66
2021/05/18 16:57:16;;;;;;;0.10;0.10;;;;;;;12.87;66.73;101303.47;10442367;28;20025;-66
2021/05/18 17:02:17;;;;;;;0.10;0.10;;;;;;;12.67;66.62;101302.91;10452525;28;20033;-67
2021/05/18 17:07:19;;;;;;;0.10;0.10;;;;;;;12.58;68.77;101303.03;10454150;28;20063;-66
2021/05/18 17:12:19;;;;;;;0.10;0.10;;;;;;;12.44;69.82;101309.81;10436410;28;20021;-65
2021/05/18 17:17:20;;;;;;;0.10;0.10;;;;;;;12.30;67.99;101315.75;10450256;28;20527;-65
2021/05/18 17:22:20;;;;;;;0.10;0.10;;;;;;;12.17;69.29;101316.19;10430046;28;20037;-65
2021/05/18 17:27:20;;;;;;;0.10;0.10;;;;;;;12.09;69.39;101322.28;10451416;28;20300;-65
2021/05/18 17:32:21;;;;;;;0.10;0.10;;;;;;;12.06;70.40;101327.94;10455396;28;20100;-66
2021/05/18 17:37:21;;;;;;;0.10;0.10;;;;;;;12.02;69.95;101333.78;10445135;28;20441;-66
2021/05/18 17:42:21;;;;;;;0.10;0.10;;;;;;;11.96;70.43;101332.56;10439382;28;20276;-67
2021/05/18 17:47:22;;;;;;;0.10;0.10;;;;;;;11.94;70.12;101339.88;10445461;28;20102;-66
2021/05/18 17:52:23;;;;;;;0.10;0.10;;;;;;;11.87;69.76;101350.34;10437629;28;20021;-67
2021/05/18 17:57:23;;;;;;;0.17;0.17;;;;;;;11.76;70.80;101348.72;10454707;28;20021;-67
2021/05/18 18:02:23;;;;;;;0.10;0.10;;;;;;;11.63;72.65;101353.59;10428337;28;20022;-66
2021/05/18 18:07:24;;;;;;;0.10;0.10;;;;;;;11.47;72.46;101359.63;10435239;28;20364;-64
2021/05/18 18:12:24;;;;;;;0.10;0.10;;;;;;;11.29;72.63;101362.28;10433721;28;20021;-65
2021/05/18 18:17:25;;;;;;;0.10;0.10;;;;;;;11.17;73.09;101365.31;10452415;28;20022;-64
2021/05/18 18:22:26;;;;;;;0.10;0.10;;;;;;;11.04;75.20;101373.66;10433543;28;20017;-68
2021/05/18 18:27:27;;;;;;;0.10;0.10;;;;;;;10.91;76.76;101371.38;10421590;28;20093;-66
2021/05/18 18:32:28;;;;;;;0.17;0.17;;;;;;;10.77;76.35;101379.84;10433744;28;20021;-65
2021/05/18 18:37:36;;;;;;;0.10;0.10;;;;;;;10.62;76.97;101382.97;10475550;28;20130;-65
2021/05/18 18:42:37;;;;;;;0.10;0.10;;;;;;;10.50;76.97;101385.94;10415010;28;20789;-65
2021/05/18 18:47:38;;;;;;;0.10;0.10;;;;;;;10.32;78.29;101385.88;10440769;28;20116;-66
2021/05/18 18:57:39;;;;;;;0.10;0.10;;;;;;;9.96;79.37;101389.13;10424088;28;20033;-66
2021/05/18 19:03:25;;;;;;;0.10;0.10;;;;;;;9.83;80.26;101399.22;10421990;28;20025;-65
2021/05/18 19:08:21;;;;;;;0.10;0.10;;;;;;;9.68;80.67;101405.91;10426801;28;20457;-67
2021/05/18 19:13:21;;;;;;;0.10;0.10;;;;;;;9.52;81.70;101417.94;10436743;28;20036;-67
2021/05/18 19:18:22;;;;;;;0.10;0.10;;;;;;;9.39;82.58;101417.34;10431372;28;20021;-67
2021/05/18 19:23:23;;;;;;;0.08;0.08;;;;;;;9.26;83.36;101417.63;10427567;28;20385;-67
2021/05/18 19:28:24;;;;;;;0.10;0.10;;;;;;;9.14;83.11;101428.50;10421588;28;20458;-66
2021/05/18 19:33:26;;;;;;;0.10;0.10;;;;;;;9.02;84.12;101431.25;10425015;28;20031;-67
2021/05/18 19:49:32;;;;;;;0.10;0.10;;;;;;;8.71;86.00;101437.53;10440861;28;20029;-67
2021/05/18 19:54:36;;;;;;;0.10;0.10;;;;;;;8.63;86.36;101443.50;10430995;28;20453;-67
2021/05/18 20:20:25;;;;;;;0.10;0.10;;;;;;;8.20;88.94;101456.88;10425964;28;20025;-66
2021/05/18 20:25:25;;;;;;;0.10;0.10;;;;;;;8.10;88.85;101460.31;10433251;28;20025;-67
2021/05/18 20:30:26;;;;;;;0.10;0.10;;;;;;;8.07;89.45;101470.34;10446358;28;20019;-67
2021/05/18 20:35:45;;;;;;;0.10;0.10;;;;;;;8.02;89.67;101465.41;10448798;28;20033;-67
2021/05/18 20:40:46;;;;;;;0.10;0.10;;;;;;;7.99;89.76;101464.81;10450099;28;20016;-67
2021/05/18 20:45:46;;;;;;;0.10;0.10;;;;;;;7.92;89.81;101465.31;10450380;28;20040;-67
2021/05/18 20:50:46;;;;;;;0.03;0.03;;;;;;;7.85;89.80;101472.13;10449131;28;20020;-67
2021/05/18 20:55:46;;;;;;;0.10;0.10;;;;;;;7.77;90.01;101471.91;10450488;28;20082;-67
2021/05/18 21:00:47;;;;;;;0.10;0.10;;;;;;;7.66;89.19;101467.47;10450033;28;20484;-66
2021/05/18 21:05:49;;;;;;;0.10;0.10;;;;;;;7.54;89.91;101479.06;10449293;28;20431;-67
2021/05/18 21:15:59;;;;;;;0.10;0.10;;;;;;;7.41;90.57;101481.84;10450714;28;20476;-67
2021/05/18 21:21:00;;;;;;;0.10;0.10;;;;;;;7.34;91.17;101490.41;10449524;28;20028;-67
2021/05/18 21:26:00;;;;;;;0.10;0.10;;;;;;;7.30;91.59;101491.59;10455720;28;20751;-67
2021/05/18 21:31:01;;;;;;;0.00;0.00;;;;;;;7.24;91.41;101499.09;10457476;28;20021;-67
2021/05/18 21:36:01;;;;;;;0.10;0.10;;;;;;;7.21;91.91;101504.63;10457391;28;20029;-67
2021/05/18 21:41:05;;;;;;;0.10;0.10;;;;;;;7.22;91.88;101510.78;10456999;28;20495;-66
2021/05/18 21:46:06;;;;;;;0.10;0.10;;;;;;;7.24;91.97;101503.53;10456089;28;20104;-67
2021/05/18 21:51:07;;;;;;;0.00;0.00;;;;;;;7.34;92.85;101501.00;10456797;28;20025;-66
2021/05/18 21:56:07;;;;;;;0.10;0.10;;;;;;;7.50;92.77;101509.41;10456623;28;20439;-67
2021/05/18 22:01:08;;;;;;;0.10;0.10;;;;;;;7.59;92.86;101511.34;10472656;22;20102;-88
2021/05/18 22:06:08;;;;;;;0.10;0.10;;;;;;;7.64;92.03;101506.50;10460859;28;20276;-91
2021/05/18 22:12:13;;;;;;;0.10;0.10;;;;;;;7.66;91.72;101509.88;10462514;28;20270;-90
2021/05/18 22:22:38;;;;;;;0.10;0.10;;;;;;;7.63;91.72;101520.75;10459180;28;20033;-89
2021/05/18 22:27:23;;;;;;;0.10;0.10;;;;;;;7.66;91.53;101515.19;10436330;28;20028;-90
2021/05/18 22:32:25;;;;;;;0.10;0.10;;;;;;;7.67;91.56;101505.41;10461328;28;20025;-90
2021/05/18 22:37:26;;;;;;;0.10;0.10;;;;;;;7.65;92.04;101507.34;10430337;28;20270;-89
2021/05/18 22:42:26;;;;;;;0.10;0.10;;;;;;;7.61;91.44;101504.09;10448020;28;20523;-90
2021/05/18 22:47:27;;;;;;;0.10;0.10;;;;;;;7.52;91.74;101511.97;10455445;28;20112;-91
2021/05/18 22:52:27;;;;;;;0.00;0.00;;;;;;;7.40;92.13;101496.06;10448882;28;20093;-89
2021/05/18 22:57:27;;;;;;;0.10;0.10;;;;;;;7.36;92.09;101501.72;10441469;28;20332;-89
2021/05/18 23:02:28;;;;;;;0.10;0.10;;;;;;;7.36;92.01;101504.38;10441839;28;20108;-89
2021/05/18 23:07:28;;;;;;;0.10;0.10;;;;;;;7.38;92.31;101507.75;10442964;28;20509;-90
2021/05/18 23:12:28;;;;;;;0.00;0.00;;;;;;;7.24;92.10;101501.75;10439797;28;20120;-90
2021/05/18 23:17:29;;;;;;;0.10;0.10;;;;;;;7.20;92.04;101508.22;10445465;28;20025;-89
2021/05/18 23:22:30;;;;;;;0.10;0.10;;;;;;;7.13;92.54;101496.44;10434567;28;20492;-89
2021/05/18 23:27:30;;;;;;;0.10;0.10;;;;;;;7.24;93.08;101512.34;10439513;28;20469;-89
2021/05/18 23:32:31;;;;;;;0.10;0.10;;;;;;;7.24;92.58;101520.28;10433727;28;20086;-89
2021/05/18 23:37:31;;;;;;;0.10;0.10;;;;;;;7.25;92.67;101516.66;10446308;28;20029;-89
2021/05/18 23:42:32;;;;;;;0.10;0.10;;;;;;;7.20;92.61;101518.00;10431018;28;20018;-89
2021/05/18 23:47:33;;;;;;;0.10;0.10;;;;;;;7.11;92.91;101508.97;10442713;28;20042;-89
2021/05/18 23:52:33;;;;;;;0.10;0.10;;;;;;;7.04;92.66;101507.75;10440932;28;20017;-89
2021/05/18 23:57:34;;;;;;;0.10;0.10;;;;;;;6.87;92.77;101505.59;10433120;28;20501;-89
